createdAt,value
2018-09-09T00:02:18.242Z,2.43
2018-09-09T00:04:47.823Z,2.67
2018-09-09T00:07:16.643Z,2.70
2018-09-09T00:09:46.214Z,2.73
2018-09-09T00:12:15.050Z,2.87
2018-09-09T00:14:43.891Z,2.50
2018-09-09T00:17:12.726Z,2.30
2018-09-09T00:19:41.590Z,2.30
2018-09-09T00:22:10.447Z,2.17
2018-09-09T00:24:39.296Z,2.50
2018-09-09T00:27:08.112Z,2.43
2018-09-09T00:29:36.948Z,2.50
2018-09-09T00:32:05.789Z,2.40
2018-09-09T00:34:34.625Z,2.50
2018-09-09T00:37:04.201Z,2.53
2018-09-09T00:39:33.034Z,2.67
2018-09-09T00:42:01.879Z,2.47
2018-09-09T00:44:30.715Z,2.60
2018-09-09T00:46:59.553Z,2.93
2018-09-09T00:49:28.374Z,2.90
2018-09-09T00:51:58.974Z,2.80
2018-09-09T00:54:27.812Z,3.05
2018-09-09T00:56:57.380Z,2.70
2018-09-09T00:59:26.210Z,2.97
2018-09-09T01:01:55.782Z,3.00
2018-09-09T01:04:24.615Z,2.83
2018-09-09T01:06:53.448Z,2.77
2018-09-09T01:09:22.278Z,3.00
2018-09-09T01:11:51.855Z,3.10
2018-09-09T01:14:20.692Z,2.80
2018-09-09T01:16:49.531Z,2.67
2018-09-09T01:19:18.355Z,2.70
2018-09-09T01:21:47.193Z,2.50
2018-09-09T01:24:16.027Z,2.77
2018-09-09T01:26:45.601Z,2.63
2018-09-09T01:29:14.442Z,2.50
2018-09-09T01:31:43.270Z,2.77
2018-09-09T01:34:12.143Z,2.50
2018-09-09T01:36:41.681Z,2.50
2018-09-09T01:39:10.515Z,2.67
2018-09-09T01:41:39.350Z,2.67
2018-09-09T01:44:08.184Z,2.60
2018-09-09T01:46:37.018Z,2.70
2018-09-09T01:49:05.865Z,3.10
2018-09-09T01:51:34.682Z,2.87
2018-09-09T01:54:03.516Z,2.43
2018-09-09T01:56:33.094Z,3.10
2018-09-09T01:59:01.919Z,3.00
2018-09-09T02:01:30.756Z,2.60
2018-09-09T02:03:59.587Z,2.78
2018-09-09T02:06:28.420Z,2.57
2018-09-09T02:08:57.251Z,2.90
2018-09-09T02:11:26.082Z,2.80
2018-09-09T02:13:54.916Z,2.70
2018-09-09T02:16:23.739Z,2.87
2018-09-09T02:18:52.577Z,2.50
2018-09-09T02:21:21.400Z,2.80
2018-09-09T02:23:50.228Z,2.70
2018-09-09T02:26:19.061Z,3.03
2018-09-09T02:28:47.893Z,2.87
2018-09-09T02:31:16.731Z,2.60
2018-09-09T02:33:45.566Z,2.57
2018-09-09T02:36:14.413Z,2.83
2018-09-09T02:38:43.247Z,3.12
2018-09-09T02:41:12.092Z,2.80
2018-09-09T02:43:40.982Z,3.00
2018-09-09T02:46:09.752Z,2.63
2018-09-09T02:48:38.580Z,2.43
2018-09-09T02:51:07.404Z,2.60
2018-09-09T02:53:36.973Z,2.63
2018-09-09T02:56:05.807Z,3.37
2018-09-09T02:58:35.382Z,3.77
2018-09-09T03:01:04.211Z,3.77
2018-09-09T03:03:33.054Z,3.50
2018-09-09T03:06:01.889Z,2.83
2018-09-09T03:08:30.708Z,2.50
2018-09-09T03:10:59.540Z,2.47
2018-09-09T03:13:28.365Z,2.53
2018-09-09T03:15:57.203Z,2.30
2018-09-09T03:18:26.029Z,2.37
2018-09-09T03:20:55.603Z,2.30
2018-09-09T03:23:24.437Z,2.37
2018-09-09T03:25:53.270Z,2.23
2018-09-09T03:28:22.145Z,2.40
2018-09-09T03:30:51.668Z,2.40
2018-09-09T03:33:20.499Z,2.23
2018-09-09T03:35:50.076Z,2.13
2018-09-09T03:38:18.904Z,2.40
2018-09-09T03:40:47.743Z,2.13
2018-09-09T03:43:16.575Z,2.40
2018-09-09T03:45:46.148Z,2.67
2018-09-09T03:48:14.978Z,2.33
2018-09-09T03:50:43.823Z,2.37
2018-09-09T03:53:12.668Z,2.70
2018-09-09T03:55:41.500Z,2.30
2018-09-09T03:58:10.347Z,2.43
2018-09-09T04:00:39.184Z,2.27
2018-09-09T04:03:08.008Z,2.60
2018-09-09T04:05:36.841Z,2.73
2018-09-09T04:08:05.669Z,2.40
2018-09-09T04:10:34.500Z,2.70
2018-09-09T04:13:03.324Z,4.13
2018-09-09T04:15:32.148Z,4.63
2018-09-09T04:18:00.986Z,4.37
2018-09-09T04:20:29.800Z,3.17
2018-09-09T04:22:58.642Z,2.30
2018-09-09T04:25:27.484Z,2.10
2018-09-09T04:27:56.312Z,2.23
2018-09-09T04:30:25.150Z,2.17
2018-09-09T04:32:53.982Z,2.30
2018-09-09T04:35:22.830Z,1.80
2018-09-09T04:37:51.662Z,2.17
2018-09-09T04:40:20.499Z,2.10
2018-09-09T04:42:49.329Z,2.20
2018-09-09T04:45:18.898Z,2.40
2018-09-09T04:47:47.732Z,2.33
2018-09-09T04:50:16.563Z,2.37
2018-09-09T04:52:45.397Z,1.97
2018-09-09T04:55:14.238Z,2.03
2018-09-09T04:57:43.067Z,2.40
2018-09-09T05:00:11.912Z,1.60
2018-09-09T05:02:40.749Z,2.30
2018-09-09T05:05:10.440Z,2.10
2018-09-09T05:07:39.155Z,2.12
2018-09-09T05:10:08.731Z,2.23
2018-09-09T05:12:37.627Z,2.20
2018-09-09T05:15:06.453Z,2.10
2018-09-09T05:17:35.286Z,2.30
2018-09-09T05:20:04.126Z,2.37
2018-09-09T05:22:33.699Z,2.33
2018-09-09T05:25:02.538Z,2.13
2018-09-09T05:27:31.369Z,2.47
2018-09-09T05:30:00.209Z,2.40
2018-09-09T05:32:29.034Z,2.53
2018-09-09T05:34:57.865Z,2.37
2018-09-09T05:37:27.439Z,2.40
2018-09-09T05:39:56.270Z,2.58
2018-09-09T05:42:25.154Z,2.47
2018-09-09T05:44:53.927Z,2.60
2018-09-09T05:47:22.774Z,2.53
2018-09-09T05:49:51.608Z,2.50
2018-09-09T05:52:20.457Z,2.27
2018-09-09T05:54:49.299Z,2.80
2018-09-09T05:57:18.874Z,1.80
2018-09-09T05:59:47.694Z,2.62
2018-09-09T06:02:17.271Z,2.50
2018-09-09T06:04:46.096Z,2.85
2018-09-09T06:07:14.926Z,2.63
2018-09-09T06:09:43.755Z,2.87
2018-09-09T06:12:12.590Z,2.47
2018-09-09T06:14:41.432Z,2.70
2018-09-09T06:17:10.266Z,2.50
2018-09-09T06:19:39.097Z,2.50
2018-09-09T06:22:07.929Z,2.50
2018-09-09T06:24:36.779Z,2.67
2018-09-09T06:27:05.619Z,2.90
2018-09-09T06:29:34.444Z,2.80
2018-09-09T06:32:03.288Z,2.73
2018-09-09T06:34:32.871Z,3.20
2018-09-09T06:37:01.693Z,3.00
2018-09-09T06:39:31.273Z,2.93
2018-09-09T06:42:00.105Z,3.10
2018-09-09T06:44:28.950Z,2.80
2018-09-09T06:46:57.781Z,3.08
2018-09-09T06:49:26.607Z,2.47
2018-09-09T06:51:56.190Z,2.97
2018-09-09T06:54:25.041Z,3.05
2018-09-09T06:56:53.905Z,3.03
2018-09-09T06:59:23.471Z,3.10
2018-09-09T07:01:52.314Z,3.10
2018-09-09T07:04:21.183Z,3.07
2018-09-09T07:06:50.003Z,3.60
2018-09-09T07:09:18.841Z,3.50
2018-09-09T07:11:47.791Z,3.53
2018-09-09T07:14:16.524Z,3.20
2018-09-09T07:16:45.368Z,3.80
2018-09-09T07:19:14.283Z,3.53
2018-09-09T07:21:43.034Z,3.80
2018-09-09T07:24:11.886Z,3.90
2018-09-09T07:26:40.697Z,3.50
2018-09-09T07:29:09.543Z,3.50
2018-09-09T07:31:38.418Z,3.67
2018-09-09T07:34:07.247Z,3.80
2018-09-09T07:36:36.053Z,3.47
2018-09-09T07:39:04.926Z,3.87
2018-09-09T07:41:33.764Z,3.97
2018-09-09T07:44:02.598Z,3.63
2018-09-09T07:46:31.485Z,3.50
2018-09-09T07:49:00.260Z,3.93
2018-09-09T07:51:29.078Z,3.87
2018-09-09T07:53:57.911Z,3.90
2018-09-09T07:56:26.733Z,3.90
2018-09-09T07:58:55.576Z,4.20
2018-09-09T08:01:24.406Z,4.30
2018-09-09T08:03:53.238Z,4.60
2018-09-09T08:06:22.812Z,4.00
2018-09-09T08:08:51.660Z,3.90
2018-09-09T08:11:20.492Z,4.30
2018-09-09T08:13:49.315Z,4.43
2018-09-09T08:16:18.151Z,3.90
2018-09-09T08:18:46.987Z,4.13
2018-09-09T08:21:16.580Z,4.63
2018-09-09T08:23:45.451Z,4.23
2018-09-09T08:26:14.279Z,4.28
2018-09-09T08:28:43.116Z,4.43
2018-09-09T08:31:11.954Z,4.50
2018-09-09T08:33:40.795Z,4.13
2018-09-09T08:36:09.626Z,4.23
2018-09-09T08:38:38.454Z,4.43
2018-09-09T08:41:07.294Z,4.63
2018-09-09T08:43:36.173Z,4.20
2018-09-09T08:46:05.014Z,4.75
2018-09-09T08:48:33.862Z,4.80
2018-09-09T08:51:02.701Z,4.40
2018-09-09T08:53:31.533Z,4.07
2018-09-09T08:56:00.371Z,4.47
2018-09-09T08:58:29.516Z,3.53
2018-09-09T09:00:58.049Z,4.63
2018-09-09T09:03:26.881Z,4.10
2018-09-09T09:05:55.730Z,4.30
2018-09-09T09:08:24.576Z,4.62
2018-09-09T09:10:54.151Z,4.13
2018-09-09T09:13:22.989Z,4.18
2018-09-09T09:15:51.852Z,3.90
2018-09-09T09:18:20.696Z,4.53
2018-09-09T09:20:49.532Z,4.10
2018-09-09T09:23:18.375Z,3.87
2018-09-09T09:25:47.207Z,3.67
2018-09-09T09:28:16.037Z,3.53
2018-09-09T09:30:44.898Z,4.10
2018-09-09T09:33:13.702Z,3.63
2018-09-09T09:35:42.547Z,3.73
2018-09-09T09:38:11.394Z,3.97
2018-09-09T09:40:40.249Z,3.80
2018-09-09T09:43:09.084Z,3.60
2018-09-09T09:45:37.932Z,3.60
2018-09-09T09:48:06.762Z,3.90
2018-09-09T09:50:35.609Z,3.33
2018-09-09T09:53:05.219Z,3.83
2018-09-09T09:55:34.080Z,3.60
2018-09-09T09:58:02.858Z,3.50
2018-09-09T10:00:31.694Z,3.53
2018-09-09T10:03:01.277Z,3.53
2018-09-09T10:05:30.123Z,3.77
2018-09-09T10:07:58.962Z,3.50
2018-09-09T10:10:27.789Z,3.30
2018-09-09T10:12:56.627Z,3.10
2018-09-09T10:15:25.462Z,3.47
2018-09-09T10:17:54.317Z,3.50
2018-09-09T10:20:23.152Z,2.93
2018-09-09T10:22:51.974Z,3.10
2018-09-09T10:25:20.807Z,2.87
2018-09-09T10:27:50.378Z,2.80
2018-09-09T10:30:19.227Z,2.90
2018-09-09T10:32:48.048Z,3.20
2018-09-09T10:35:16.875Z,3.00
2018-09-09T10:37:45.704Z,3.00
2018-09-09T10:40:14.565Z,2.70
2018-09-09T10:42:43.406Z,3.00
2018-09-09T10:45:12.259Z,2.80
2018-09-09T10:47:41.116Z,3.75
2018-09-09T10:50:09.919Z,3.33
2018-09-09T10:52:39.500Z,3.03
2018-09-09T10:55:09.074Z,3.78
2018-09-09T10:57:37.901Z,3.22
2018-09-09T11:00:06.743Z,3.08
2018-09-09T11:02:35.588Z,3.45
2018-09-09T11:05:04.423Z,3.28
2018-09-09T11:07:33.252Z,3.30
2018-09-09T11:10:02.133Z,3.08
2018-09-09T11:12:30.972Z,2.85
2018-09-09T11:14:59.796Z,2.40
2018-09-09T11:17:28.633Z,2.37
2018-09-09T11:19:57.467Z,2.92
2018-09-09T11:22:26.311Z,2.80
2018-09-09T11:24:55.139Z,2.37
2018-09-09T11:27:24.785Z,2.50
2018-09-09T11:29:53.669Z,2.58
2018-09-09T11:32:22.456Z,2.10
2018-09-09T11:34:51.293Z,2.10
2018-09-09T11:37:20.128Z,1.85
2018-09-09T11:39:49.708Z,1.90
2018-09-09T11:42:18.548Z,2.30
2018-09-09T11:44:47.410Z,2.00
2018-09-09T11:47:16.275Z,1.75
2018-09-09T11:49:45.111Z,1.83
2018-09-09T11:52:13.945Z,1.62
2018-09-09T11:54:43.528Z,1.60
2018-09-09T11:57:12.355Z,1.58
2018-09-09T11:59:41.937Z,1.80
2018-09-09T12:02:10.765Z,1.70
2018-09-09T12:04:40.368Z,1.83
2018-09-09T12:07:09.199Z,1.85
2018-09-09T12:09:38.773Z,2.10
2018-09-09T12:12:08.355Z,1.95
2018-09-09T12:14:37.192Z,2.55
2018-09-09T12:17:06.051Z,2.42
2018-09-09T12:19:34.892Z,1.98
2018-09-09T12:22:03.724Z,2.70
2018-09-09T12:24:32.570Z,2.42
2018-09-09T12:27:01.410Z,2.30
2018-09-09T12:29:30.243Z,1.87
2018-09-09T12:31:59.089Z,3.20
2018-09-09T12:34:27.926Z,2.75
2018-09-09T12:36:56.769Z,1.75
2018-09-09T12:39:25.614Z,3.75
2018-09-09T12:41:54.440Z,4.40
2018-09-09T12:44:23.331Z,1.92
2018-09-09T12:46:52.243Z,1.70
2018-09-09T12:49:21.083Z,1.73
2018-09-09T12:51:49.923Z,1.60
2018-09-09T12:54:19.492Z,1.70
2018-09-09T12:56:48.336Z,2.20
2018-09-09T12:59:17.170Z,1.70
2018-09-09T13:01:45.997Z,1.55
2018-09-09T13:04:15.585Z,1.70
2018-09-09T13:06:44.435Z,1.50
2018-09-09T13:09:13.273Z,1.85
2018-09-09T13:11:42.106Z,1.37
2018-09-09T13:14:10.950Z,1.50
2018-09-09T13:16:39.794Z,1.70
2018-09-09T13:19:08.642Z,1.50
2018-09-09T13:21:37.470Z,1.30
2018-09-09T13:24:06.307Z,1.55
2018-09-09T13:26:35.194Z,1.30
2018-09-09T13:29:04.268Z,1.30
2018-09-09T13:31:32.907Z,1.40
2018-09-09T13:34:02.486Z,1.27
2018-09-09T13:36:31.334Z,1.45
2018-09-09T13:39:00.163Z,1.40
2018-09-09T13:41:28.998Z,1.27
2018-09-09T13:43:57.832Z,1.50
2018-09-09T13:46:26.692Z,1.50
2018-09-09T13:48:55.527Z,1.40
2018-09-09T13:51:24.355Z,1.30
2018-09-09T13:53:53.207Z,1.30
2018-09-09T13:56:22.042Z,1.42
2018-09-09T13:58:50.880Z,1.30
2018-09-09T14:01:19.722Z,1.35
2018-09-09T14:03:48.623Z,2.83
2018-09-09T14:06:17.442Z,1.37
2018-09-09T14:08:46.249Z,1.65
2018-09-09T14:11:15.138Z,1.60
2018-09-09T14:13:43.982Z,1.60
2018-09-09T14:16:12.815Z,1.40
2018-09-09T14:18:41.650Z,1.40
2018-09-09T14:21:10.488Z,1.73
2018-09-09T14:23:39.344Z,1.48
2018-09-09T14:26:08.163Z,1.70
2018-09-09T14:28:37.016Z,1.52
2018-09-09T14:31:05.860Z,1.60
2018-09-09T14:33:34.699Z,1.30
2018-09-09T14:36:03.540Z,1.50
2018-09-09T14:38:32.399Z,1.58
2018-09-09T14:41:01.229Z,1.73
2018-09-09T14:43:30.080Z,1.48
2018-09-09T14:45:58.950Z,1.20
2018-09-09T14:48:27.780Z,1.80
2018-09-09T14:50:56.642Z,1.60
2018-09-09T14:53:25.508Z,1.70
2018-09-09T14:55:54.329Z,1.70
2018-09-09T14:58:23.160Z,1.50
2018-09-09T15:00:52.177Z,1.40
2018-09-09T15:03:21.025Z,1.20
2018-09-09T15:05:49.887Z,1.37
2018-09-09T15:08:18.741Z,1.48
2018-09-09T15:10:47.572Z,2.10
2018-09-09T15:13:16.402Z,1.50
2018-09-09T15:15:45.238Z,1.30
2018-09-09T15:18:14.062Z,1.73
2018-09-09T15:20:43.646Z,2.95
2018-09-09T15:23:12.494Z,3.08
2018-09-09T15:25:41.352Z,2.53
2018-09-09T15:28:10.186Z,3.00
2018-09-09T15:30:39.032Z,2.20
2018-09-09T15:33:07.865Z,3.00
2018-09-09T15:35:36.710Z,2.75
2018-09-09T15:41:12.381Z,2.58
2018-09-09T15:43:45.072Z,1.73
2018-09-09T15:46:17.167Z,1.67
2018-09-09T15:48:44.659Z,1.50
2018-09-09T15:51:12.335Z,1.37
2018-09-09T15:53:52.151Z,1.40
2018-09-09T15:59:07.034Z,1.50
2018-09-09T16:01:39.824Z,1.52
2018-09-09T16:04:13.427Z,1.40
2018-09-09T16:06:45.086Z,1.40
2018-09-09T16:09:16.343Z,1.25
2018-09-09T16:11:46.122Z,1.30
2018-09-09T16:14:15.787Z,1.33
2018-09-09T16:16:46.280Z,2.80
2018-09-09T16:19:22.918Z,1.70
2018-09-09T16:21:52.123Z,1.87
2018-09-09T16:24:40.756Z,1.77
2018-09-09T16:29:43.766Z,2.03
2018-09-09T16:32:14.814Z,1.73
2018-09-09T16:34:53.770Z,1.67
2018-09-09T16:37:20.887Z,1.80
2018-09-09T16:39:51.184Z,1.77
2018-09-09T16:42:33.856Z,1.73
2018-09-09T16:44:58.938Z,1.70
2018-09-09T16:50:14.772Z,2.20
2018-09-09T16:52:50.488Z,2.97
2018-09-09T16:55:18.129Z,2.67
2018-09-09T16:57:52.152Z,2.00
2018-09-09T17:00:17.938Z,2.20
2018-09-09T17:02:57.016Z,1.73
2018-09-09T17:05:25.268Z,1.52
2018-09-09T17:08:03.112Z,1.50
2018-09-09T17:10:35.061Z,1.80
2018-09-09T17:15:45.966Z,1.58
2018-09-09T17:18:15.187Z,1.85
2018-09-09T17:20:48.525Z,1.80
2018-09-09T17:23:27.368Z,1.90
2018-09-09T17:25:57.883Z,1.60
2018-09-09T17:28:27.706Z,1.50
2018-09-09T17:31:05.448Z,1.60
2018-09-09T17:33:38.477Z,1.70
2018-09-09T17:36:11.167Z,1.80
2018-09-09T17:38:41.797Z,1.80
2018-09-09T17:41:24.015Z,2.05
2018-09-09T17:43:57.613Z,2.28
2018-09-09T17:46:29.559Z,1.67
2018-09-09T17:49:00.867Z,1.70
2018-09-09T17:51:37.864Z,2.08
2018-09-09T17:54:10.194Z,2.10
2018-09-09T17:56:50.297Z,2.05
2018-09-09T17:59:20.363Z,1.73
2018-09-09T18:01:51.927Z,2.10
2018-09-09T18:07:42.901Z,2.00
2018-09-09T18:10:13.636Z,2.10
2018-09-09T18:12:33.948Z,1.65
2018-09-09T18:15:09.406Z,1.70
2018-09-09T18:20:26.111Z,2.08
2018-09-09T18:25:39.049Z,5.20
2018-09-09T18:28:17.265Z,5.43
2018-09-09T18:30:53.427Z,5.07
2018-09-09T18:33:23.284Z,5.10
2018-09-09T18:41:53.097Z,3.70
2018-09-09T18:44:31.293Z,4.22
2018-09-09T18:47:04.608Z,4.18
2018-09-09T18:49:35.913Z,4.87
2018-09-09T19:00:35.593Z,5.28
2018-09-09T19:03:07.761Z,4.68
2018-09-09T19:08:25.347Z,5.30
2018-09-09T19:14:00.711Z,4.07
2018-09-09T19:19:18.259Z,3.70
2018-09-09T19:21:50.409Z,3.30
2018-09-09T19:24:20.171Z,3.45
2018-09-09T19:26:52.538Z,3.55
2018-09-09T19:29:23.708Z,3.05
2018-09-09T19:32:02.258Z,3.10
2018-09-09T19:34:33.542Z,2.90
2018-09-09T19:37:02.409Z,3.30
2018-09-09T19:42:35.399Z,2.50
2018-09-09T19:45:08.763Z,2.62
2018-09-09T19:47:41.039Z,2.75
2018-09-09T19:50:10.424Z,2.50
2018-09-09T19:52:57.557Z,2.40
2018-09-09T19:55:27.118Z,2.80
2018-09-09T19:57:55.968Z,2.67
2018-09-09T20:00:24.837Z,2.40
2018-09-09T20:02:58.349Z,2.17
2018-09-09T20:05:29.523Z,2.42
2018-09-09T20:07:58.381Z,2.50
2018-09-09T20:10:27.253Z,2.40
2018-09-09T20:12:56.846Z,2.20
2018-09-09T20:15:25.704Z,2.22
2018-09-09T20:17:54.583Z,2.22
2018-09-09T20:20:24.371Z,1.83
2018-09-09T20:22:53.036Z,2.12
2018-09-09T20:25:21.799Z,1.80
2018-09-09T20:27:50.663Z,2.30
2018-09-09T20:30:19.498Z,1.77
2018-09-09T20:32:48.346Z,1.65
2018-09-09T20:35:17.236Z,2.00
2018-09-09T20:37:46.024Z,1.90
2018-09-09T20:40:14.893Z,2.20
2018-09-09T20:42:44.461Z,1.87
2018-09-09T20:45:13.319Z,1.80
2018-09-09T20:47:42.142Z,2.10
2018-09-09T20:50:10.992Z,2.05
2018-09-09T20:52:39.825Z,2.00
2018-09-09T20:55:08.673Z,2.30
2018-09-09T20:57:37.535Z,2.35
2018-09-09T21:00:06.354Z,2.22
2018-09-09T21:02:35.192Z,2.12
2018-09-09T21:05:04.036Z,2.40
2018-09-09T21:07:32.867Z,2.45
2018-09-09T21:10:02.333Z,2.40
2018-09-09T21:12:31.277Z,2.60
2018-09-09T21:15:00.103Z,2.33
2018-09-09T21:17:28.943Z,2.20
2018-09-09T21:19:57.803Z,2.30
2018-09-09T21:22:26.654Z,2.45
2018-09-09T21:24:55.507Z,2.33
2018-09-09T21:27:24.544Z,2.20
2018-09-09T21:29:53.374Z,2.30
2018-09-09T21:32:22.212Z,2.47
2018-09-09T21:34:51.061Z,2.58
2018-09-09T21:37:19.899Z,2.40
2018-09-09T21:39:48.730Z,2.55
2018-09-09T21:42:18.316Z,2.70
2018-09-09T21:44:47.146Z,2.40
2018-09-09T21:47:16.021Z,2.17
2018-09-09T21:49:44.860Z,2.50
2018-09-09T21:52:13.700Z,2.62
2018-09-09T21:54:42.549Z,2.70
2018-09-09T21:57:11.392Z,2.70
2018-09-09T21:59:40.964Z,2.70
2018-09-09T22:02:09.795Z,2.60
2018-09-09T22:04:39.088Z,2.55
2018-09-09T22:07:07.900Z,2.80
2018-09-09T22:09:36.764Z,2.70
2018-09-09T22:12:05.608Z,2.80
2018-09-09T22:14:34.443Z,2.80
2018-09-09T22:17:03.292Z,1.90
2018-09-09T22:19:32.125Z,2.33
2018-09-09T22:22:00.970Z,2.37
2018-09-09T22:24:29.809Z,2.30
2018-09-09T22:26:59.387Z,1.87
2018-09-09T22:29:28.224Z,2.10
2018-09-09T22:31:57.803Z,2.30
2018-09-09T22:34:26.647Z,2.20
2018-09-09T22:36:55.482Z,2.20
2018-09-09T22:39:24.320Z,2.37
2018-09-09T22:41:53.181Z,2.40
2018-09-09T22:44:22.046Z,2.13
2018-09-09T22:46:50.891Z,1.97
2018-09-09T22:49:19.717Z,2.30
2018-09-09T22:51:48.557Z,2.07
2018-09-09T22:54:17.396Z,2.27
2018-09-09T22:56:46.234Z,2.27
2018-09-09T22:59:15.055Z,2.50
2018-09-09T23:01:43.886Z,2.13
2018-09-09T23:04:12.722Z,2.17
2018-09-09T23:06:41.555Z,1.90
2018-09-09T23:09:10.415Z,2.00
2018-09-09T23:11:39.234Z,2.20
2018-09-09T23:14:08.069Z,2.00
2018-09-09T23:16:36.966Z,1.73
2018-09-09T23:19:06.511Z,1.90
2018-09-09T23:21:35.336Z,2.03
2018-09-09T23:24:04.170Z,2.00
2018-09-09T23:26:33.017Z,2.00
2018-09-09T23:29:01.845Z,1.80
2018-09-09T23:31:30.671Z,1.77
2018-09-09T23:33:59.501Z,1.87
2018-09-09T23:36:28.335Z,2.00
2018-09-09T23:38:57.166Z,1.97
2018-09-09T23:41:25.990Z,1.73
2018-09-09T23:43:54.838Z,1.80
2018-09-09T23:46:23.669Z,1.80
2018-09-09T23:48:52.506Z,2.10
2018-09-09T23:51:21.348Z,1.70
2018-09-09T23:53:50.177Z,1.83
2018-09-09T23:56:19.746Z,1.90
2018-09-09T23:58:48.584Z,2.00
